Time;durP1;ratioP1;P1;durP2;ratioP2;P2;SDS_P1;SDS_P2;PMS_P1;PMS_P2;Temp;Humidity;BMP_temperature;BMP_pressure;BME280_temperature;BME280_humidity;BME280_pressure;Samples;Min_cycle;Max_cycle;Signal;HPM_P1;HPM_P2
2023/06/03 00:00:26;;;;;;;8.97;6.10;;;;;;;-143.84;86.17;44639.69;5112847;28;20436;-57
2023/06/03 00:02:53;;;;;;;11.43;6.30;;;;;;;-143.84;85.60;44755.84;5112887;28;20505;-57
2023/06/03 00:05:22;;;;;;;9.20;6.60;;;;;;;-143.84;85.02;44784.41;5112774;28;20433;-57
2023/06/03 00:07:50;;;;;;;6.30;5.80;;;;;;;-143.84;84.60;44803.44;5112735;28;20441;-57
2023/06/03 00:10:17;;;;;;;6.47;5.80;;;;;;;-143.84;83.80;44843.44;5112984;28;20437;-57
2023/06/03 00:12:45;;;;;;;6.77;6.17;;;;;;;-143.84;83.02;44883.41;5112412;28;21048;-57
2023/06/03 00:15:12;;;;;;;9.00;5.27;;;;;;;-143.84;82.41;44910.06;5112216;28;20565;-57
2023/06/03 00:17:39;;;;;;;9.30;5.30;;;;;;;-143.84;80.50;44961.47;5112459;28;20503;-57
2023/06/03 00:20:09;;;;;;;4.77;4.13;;;;;;;-143.84;75.86;45014.78;5112206;28;20942;-57
2023/06/03 00:22:38;;;;;;;6.63;4.53;;;;;;;-143.84;72.31;45075.72;5112264;28;20445;-57
2023/06/03 00:25:07;;;;;;;4.83;4.30;;;;;;;-143.84;69.26;45037.66;5112557;28;20432;-57
2023/06/03 00:27:34;;;;;;;7.87;4.80;;;;;;;-143.84;64.01;45070.00;5112698;28;20447;-57
2023/06/03 00:30:02;;;;;;;5.50;4.50;;;;;;;-143.84;62.65;45073.81;5112535;28;20454;-57
2023/06/03 00:32:29;;;;;;;5.33;4.10;;;;;;;-143.84;61.18;45056.69;5112257;28;21320;-57
2023/06/03 00:34:56;;;;;;;6.20;4.23;;;;;;;-143.84;58.81;45064.31;5092094;28;20434;-57
2023/06/03 00:37:23;;;;;;;5.47;4.43;;;;;;;-143.84;57.19;45043.34;5091803;28;20565;-57
2023/06/03 00:39:52;;;;;;;7.77;4.40;;;;;;;-143.84;56.05;45064.31;5091941;28;20494;-57
2023/06/03 00:42:19;;;;;;;4.70;4.20;;;;;;;-143.84;55.23;45068.13;5091727;28;20446;-57
2023/06/03 00:44:46;;;;;;;6.93;4.67;;;;;;;-143.84;55.14;45081.44;5091567;28;20433;-57
2023/06/03 00:47:15;;;;;;;13.80;4.70;;;;;;;-143.84;54.17;45058.59;5091381;28;21016;-57
2023/06/03 00:49:42;;;;;;;5.70;4.30;;;;;;;-143.84;53.92;45094.78;5091654;28;20492;-57
2023/06/03 00:52:10;;;;;;;8.70;4.50;;;;;;;-143.84;54.10;45049.06;5091471;28;20492;-57
2023/06/03 00:54:38;;;;;;;10.13;4.50;;;;;;;-143.84;52.40;45047.16;5090893;28;20512;-57
2023/06/03 00:57:07;;;;;;;11.03;4.57;;;;;;;-143.84;51.14;45054.78;5091859;28;20437;-57
2023/06/03 00:59:34;;;;;;;6.77;4.50;;;;;;;-143.84;49.76;45056.69;5091284;28;20441;-57
2023/06/03 01:02:01;;;;;;;4.70;4.30;;;;;;;-143.84;50.33;45056.69;5091351;28;20503;-57
2023/06/03 01:04:29;;;;;;;7.67;5.20;;;;;;;-143.84;51.70;45075.72;5091209;28;20993;-57
2023/06/03 01:07:07;;;;;;;7.50;4.17;;;;;;;-143.84;51.90;45090.97;5091227;28;20444;-57
2023/06/03 01:09:45;;;;;;;9.40;4.10;;;;;;;-143.84;53.81;45054.78;5091515;28;20474;-57
2023/06/03 01:12:25;;;;;;;5.10;4.37;;;;;;;-143.84;54.03;45066.22;5091221;28;20926;-57
2023/06/03 01:14:56;;;;;;;5.30;3.90;;;;;;;-143.84;51.16;45079.53;5090723;28;20504;-57
2023/06/03 01:17:27;;;;;;;5.20;3.73;;;;;;;-143.84;49.62;45075.72;5090931;28;20452;-57
2023/06/03 01:19:56;;;;;;;7.50;4.80;;;;;;;-143.84;49.02;45045.25;5090581;28;20448;-57
2023/06/03 01:22:26;;;;;;;10.53;5.17;;;;;;;-143.84;50.96;45079.53;5090772;28;20458;-57
2023/06/03 01:25:05;;;;;;;9.27;5.13;;;;;;;-143.84;49.87;45056.69;5090741;28;20477;-57
2023/06/03 01:27:33;;;;;;;24.73;4.83;;;;;;;-143.84;50.44;45054.78;5090575;28;20443;-57
2023/06/03 01:30:01;;;;;;;14.80;4.37;;;;;;;-143.84;51.64;45054.78;5090966;28;20472;-57
2023/06/03 01:32:28;;;;;;;4.97;4.30;;;;;;;-143.84;52.18;45049.06;5090892;28;20511;-57
2023/06/03 01:34:56;;;;;;;10.37;4.30;;;;;;;-143.84;51.99;45058.59;5090277;28;20481;-57
2023/06/03 01:37:23;;;;;;;5.17;4.73;;;;;;;-143.84;51.94;45050.97;5090556;28;20502;-57
2023/06/03 01:39:51;;;;;;;6.23;4.73;;;;;;;-143.84;52.04;45071.91;5090455;28;20438;-57
2023/06/03 01:42:20;;;;;;;4.33;3.90;;;;;;;-143.84;50.90;45064.31;5090498;28;20441;-57
2023/06/03 01:44:48;;;;;;;5.27;3.93;;;;;;;-143.84;50.73;45052.88;5090364;28;20449;-57
2023/06/03 01:47:15;;;;;;;4.83;4.20;;;;;;;-143.84;48.85;45039.53;5090475;28;20519;-57
2023/06/03 01:49:42;;;;;;;8.70;4.83;;;;;;;-143.84;47.31;45049.06;5090162;28;20491;-57
2023/06/03 01:52:10;;;;;;;9.50;4.00;;;;;;;-143.84;47.00;45058.59;5090388;28;20441;-57
2023/06/03 01:54:37;;;;;;;8.43;4.37;;;;;;;-143.84;47.43;45066.22;5090307;28;20511;-57
2023/06/03 01:57:05;;;;;;;6.40;3.77;;;;;;;-143.84;47.74;45052.88;5090227;28;20425;-57
2023/06/03 01:59:34;;;;;;;11.30;4.60;;;;;;;-143.84;49.02;45039.53;5090077;28;20484;-57
2023/06/03 02:02:01;;;;;;;5.23;4.73;;;;;;;-143.84;50.25;45066.22;5090301;28;20578;-57
2023/06/03 02:04:28;;;;;;;4.57;4.00;;;;;;;-143.84;50.38;45041.44;5089712;28;20445;-57
2023/06/03 02:06:58;;;;;;;13.53;5.40;;;;;;;-143.84;49.61;45049.06;5089260;28;20446;-57
2023/06/03 02:09:27;;;;;;;5.50;4.77;;;;;;;-143.84;49.22;45043.34;5090211;28;20446;-57
2023/06/03 02:11:55;;;;;;;7.30;3.83;;;;;;;-143.84;49.68;45056.69;5089927;28;20524;-57
2023/06/03 02:14:22;;;;;;;6.90;4.60;;;;;;;-143.84;50.33;45037.66;5089526;28;20930;-57
2023/06/03 02:16:51;;;;;;;4.20;3.77;;;;;;;-143.84;49.46;45052.88;5089876;28;20453;-57
2023/06/03 02:19:20;;;;;;;13.60;4.57;;;;;;;-143.84;48.97;45077.63;5089598;28;20450;-57
2023/06/03 02:21:48;;;;;;;6.90;4.00;;;;;;;-143.84;48.26;45075.72;5089591;28;20800;-57
2023/06/03 02:24:16;;;;;;;5.20;4.50;;;;;;;-143.84;48.25;45049.06;5089867;28;20532;-57
2023/06/03 02:26:49;;;;;;;9.13;4.10;;;;;;;-143.84;47.15;45066.22;5089551;28;20442;-57
2023/06/03 02:29:18;;;;;;;7.10;3.80;;;;;;;-143.84;46.41;45066.22;5089452;28;20445;-57
2023/06/03 02:31:45;;;;;;;3.67;3.37;;;;;;;-143.84;45.01;45037.66;5089262;28;20429;-57
2023/06/03 02:34:13;;;;;;;5.93;4.40;;;;;;;-143.84;45.13;45043.34;5089624;28;20529;-57
2023/06/03 02:36:42;;;;;;;5.97;4.47;;;;;;;-143.84;45.82;45060.50;5089542;28;20444;-57
2023/06/03 02:39:09;;;;;;;5.30;3.80;;;;;;;-143.84;47.94;45028.13;5089631;28;20442;-57
2023/06/03 02:41:36;;;;;;;5.90;4.17;;;;;;;-143.84;48.88;45052.88;5089391;28;20441;-57
2023/06/03 02:44:04;;;;;;;6.67;4.40;;;;;;;-143.84;49.01;45068.13;5089338;28;20449;-57
2023/06/03 02:46:31;;;;;;;6.60;4.57;;;;;;;-143.84;48.95;45090.97;5089466;28;21409;-57
2023/06/03 02:48:59;;;;;;;5.07;4.57;;;;;;;-143.84;47.76;45083.34;5089410;28;21437;-57
2023/06/03 02:51:27;;;;;;;4.93;4.53;;;;;;;-143.84;47.87;45070.00;5095455;28;20467;-57
2023/06/03 02:53:55;;;;;;;8.20;4.90;;;;;;;-143.84;47.65;45089.06;5109549;28;20537;-57
2023/06/03 02:56:23;;;;;;;8.93;4.50;;;;;;;-143.84;47.51;45071.91;5109698;28;20444;-57
2023/06/03 02:58:50;;;;;;;4.70;4.30;;;;;;;-143.84;47.13;45043.34;5109675;28;20834;-57
2023/06/03 03:01:20;;;;;;;8.20;4.30;;;;;;;-143.84;47.15;45068.13;5109271;28;20503;-57
2023/06/03 03:03:47;;;;;;;4.70;3.67;;;;;;;-143.84;46.36;45049.06;5109204;28;20531;-57
2023/06/03 03:06:15;;;;;;;4.10;3.50;;;;;;;-143.84;46.12;45062.41;5109394;28;20482;-57
2023/06/03 03:08:45;;;;;;;9.77;5.17;;;;;;;-143.84;46.20;45064.31;5109431;28;20523;-57
2023/06/03 03:11:13;;;;;;;5.30;3.87;;;;;;;-143.84;46.09;45052.88;5109440;28;21235;-57
2023/06/03 03:13:40;;;;;;;6.03;4.57;;;;;;;-143.84;45.44;45033.84;5109153;28;20487;-57
2023/06/03 03:16:07;;;;;;;8.87;4.57;;;;;;;-143.84;45.41;45050.97;5108714;28;20461;-57
2023/06/03 03:18:35;;;;;;;4.23;3.87;;;;;;;-143.84;46.21;45068.13;5109459;28;20437;-57
2023/06/03 03:21:02;;;;;;;9.63;4.00;;;;;;;-143.84;46.32;45031.94;5109246;28;20844;-57
2023/06/03 03:23:30;;;;;;;9.53;4.57;;;;;;;-143.84;46.17;45037.66;5109212;28;20520;-57
2023/06/03 03:26:00;;;;;;;15.53;4.60;;;;;;;-143.84;46.69;45056.69;5109117;28;20486;-57
2023/06/03 03:28:27;;;;;;;16.13;4.70;;;;;;;-143.84;46.12;45041.44;5109337;28;20526;-57
2023/06/03 03:30:56;;;;;;;4.97;4.40;;;;;;;-143.84;44.61;45060.50;5109063;28;20441;-57
2023/06/03 03:33:24;;;;;;;7.63;4.63;;;;;;;-143.84;43.66;45068.13;5109077;28;20438;-57
2023/06/03 03:35:52;;;;;;;4.80;3.73;;;;;;;-143.84;42.20;45028.13;5108993;28;20517;-57
2023/06/03 03:38:19;;;;;;;6.20;4.50;;;;;;;-143.84;42.59;45054.78;5109550;28;20440;-57
2023/06/03 03:40:46;;;;;;;6.10;4.70;;;;;;;-143.84;42.10;45024.31;5109252;28;20444;-57
2023/06/03 03:43:18;;;;;;;10.63;4.03;;;;;;;-143.84;44.03;45031.94;5109293;28;20519;-57
2023/06/03 03:45:45;;;;;;;7.90;3.73;;;;;;;-143.84;43.19;45033.84;5108862;28;20463;-58
2023/06/03 03:48:14;;;;;;;6.60;3.87;;;;;;;-143.84;42.99;45005.28;5108984;28;20504;-57
2023/06/03 03:50:44;;;;;;;4.57;3.70;;;;;;;-143.84;43.28;45041.44;5109201;28;20956;-57
2023/06/03 03:53:13;;;;;;;5.13;3.80;;;;;;;-143.84;42.93;45012.88;5108905;28;20563;-56
2023/06/03 03:55:42;;;;;;;3.77;3.33;;;;;;;-143.84;46.26;45026.22;5108581;28;20467;-56
2023/06/03 03:58:25;;;;;;;4.20;3.70;;;;;;;-143.84;46.42;45041.44;5108760;28;20469;-57
2023/06/03 04:00:53;;;;;;;8.83;4.27;;;;;;;-143.84;46.22;45028.13;5108855;28;20435;-57
2023/06/03 04:03:20;;;;;;;7.13;4.00;;;;;;;-143.84;47.30;45028.13;5109077;28;20435;-57
2023/06/03 04:05:48;;;;;;;8.07;4.10;;;;;;;-143.84;47.89;45033.84;5092867;28;20460;-57
2023/06/03 04:08:36;;;;;;;4.27;3.87;;;;;;;-143.84;50.68;45014.78;5088392;28;20429;-57
2023/06/03 04:11:04;;;;;;;4.90;4.40;;;;;;;-143.84;50.57;45009.09;5088393;28;20456;-57
2023/06/03 04:13:36;;;;;;;8.23;4.63;;;;;;;-143.84;47.86;45024.31;5106563;28;20563;-57
2023/06/03 04:16:04;;;;;;;8.07;4.27;;;;;;;-143.84;47.58;45030.03;5108168;28;20494;-57
2023/06/03 04:18:34;;;;;;;11.03;4.33;;;;;;;-143.84;47.04;45024.31;5108413;28;20455;-57
2023/06/03 04:21:01;;;;;;;9.17;4.90;;;;;;;-143.84;54.21;45024.31;5108721;28;20471;-57
2023/06/03 04:23:29;;;;;;;5.10;4.70;;;;;;;-143.84;59.64;44999.56;5108422;28;20485;-57
2023/06/03 04:25:56;;;;;;;11.70;5.13;;;;;;;-143.84;62.06;45012.88;5088585;28;20445;-57
2023/06/03 04:28:23;;;;;;;7.50;5.10;;;;;;;-143.84;63.79;44997.66;5088832;28;20444;-57
2023/06/03 04:30:52;;;;;;;13.03;4.90;;;;;;;-143.84;64.76;45039.53;5094426;28;20440;-57
2023/06/03 04:33:19;;;;;;;10.90;5.23;;;;;;;-143.84;65.46;45026.22;5109671;28;20441;-57
2023/06/03 04:35:46;;;;;;;10.30;4.87;;;;;;;-143.84;65.67;45003.38;5112102;28;20802;-57
2023/06/03 04:38:13;;;;;;;5.50;5.00;;;;;;;-143.84;64.48;45026.22;5112110;28;20438;-57
2023/06/03 04:40:40;;;;;;;7.23;4.10;;;;;;;-143.84;63.99;45005.28;5112219;28;20510;-57
2023/06/03 04:43:07;;;;;;;5.80;4.90;;;;;;;-143.84;62.51;45037.66;5112273;28;20438;-57
2023/06/03 04:45:35;;;;;;;6.60;4.83;;;;;;;-143.84;62.08;45009.09;5112107;28;20832;-57
2023/06/03 04:48:05;;;;;;;5.13;4.63;;;;;;;-143.84;62.06;45007.19;5111953;28;21013;-57
2023/06/03 04:50:34;;;;;;;5.10;4.37;;;;;;;-143.84;62.63;45003.38;5111539;28;20445;-57
2023/06/03 04:53:02;;;;;;;5.93;5.30;;;;;;;-143.84;62.74;45022.41;5111205;28;20441;-57
2023/06/03 04:55:30;;;;;;;8.50;4.67;;;;;;;-143.84;62.54;44991.94;5111640;28;20485;-57
2023/06/03 04:58:00;;;;;;;6.03;5.07;;;;;;;-143.84;63.35;45018.59;5111408;28;20936;-57
2023/06/03 05:00:28;;;;;;;8.43;5.10;;;;;;;-143.84;63.05;44995.75;5111240;28;20442;-57
2023/06/03 05:02:59;;;;;;;8.00;4.50;;;;;;;-143.84;62.67;45007.19;5111346;28;20491;-57
2023/06/03 05:05:28;;;;;;;4.73;4.13;;;;;;;-143.84;63.05;45010.97;5111513;28;20452;-57
2023/06/03 05:07:55;;;;;;;8.50;4.87;;;;;;;-143.84;61.88;45001.47;5111027;28;20451;-57
2023/06/03 05:10:22;;;;;;;8.57;4.90;;;;;;;-143.84;60.27;44991.94;5111636;28;20443;-57
2023/06/03 05:12:50;;;;;;;5.20;4.60;;;;;;;-143.84;60.06;44991.94;5111652;28;20440;-57
2023/06/03 05:15:17;;;;;;;7.07;4.50;;;;;;;-143.84;59.29;45039.53;5111179;28;20498;-57
2023/06/03 05:17:44;;;;;;;13.87;4.90;;;;;;;-143.84;58.85;44993.84;5111392;28;20814;-57
2023/06/03 05:20:12;;;;;;;6.63;4.63;;;;;;;-143.84;57.47;44993.84;5111537;28;20543;-57
2023/06/03 05:22:41;;;;;;;7.30;4.80;;;;;;;-143.84;55.51;45010.97;5111294;28;20430;-57
2023/06/03 05:25:09;;;;;;;4.67;3.70;;;;;;;-143.84;55.57;44969.09;5111158;28;20455;-57
2023/06/03 05:27:36;;;;;;;5.37;4.83;;;;;;;-143.84;54.25;44995.75;5111309;28;20883;-57
2023/06/03 05:30:03;;;;;;;5.33;4.83;;;;;;;-143.84;51.69;44978.63;5111145;28;20437;-57
2023/06/03 05:32:30;;;;;;;5.20;4.37;;;;;;;-143.84;50.96;44961.47;5111056;28;20440;-57
2023/06/03 05:34:57;;;;;;;12.30;4.77;;;;;;;-143.84;50.50;44948.16;5110655;28;20478;-57
2023/06/03 05:37:24;;;;;;;11.70;5.10;;;;;;;-143.84;48.77;44986.22;5110887;28;20507;-57
2023/06/03 05:39:53;;;;;;;5.77;4.07;;;;;;;-143.84;46.14;44993.84;5110703;28;20460;-57
2023/06/03 05:42:20;;;;;;;8.27;5.47;;;;;;;-143.84;49.16;44986.22;5110437;28;20447;-57
2023/06/03 05:44:47;;;;;;;18.60;4.93;;;;;;;-143.84;49.93;44955.75;5109963;28;20495;-57
2023/06/03 05:47:14;;;;;;;6.43;4.83;;;;;;;-143.84;51.69;44990.03;5110243;28;20451;-57
2023/06/03 05:49:41;;;;;;;9.83;4.73;;;;;;;-143.84;50.97;44967.19;5110798;28;20520;-57
2023/06/03 05:52:08;;;;;;;7.80;4.80;;;;;;;-143.84;51.23;44974.81;5110639;28;20434;-57
2023/06/03 05:54:35;;;;;;;14.30;5.10;;;;;;;-143.84;49.99;44986.22;5110288;28;20475;-57
2023/06/03 05:57:04;;;;;;;6.03;4.23;;;;;;;-143.84;50.83;44982.41;5110973;28;20586;-57
2023/06/03 05:59:32;;;;;;;5.03;4.47;;;;;;;-143.84;50.54;44997.66;5110553;28;20438;-57
2023/06/03 06:01:59;;;;;;;14.10;5.43;;;;;;;-143.84;52.50;44995.75;5110093;28;20521;-57
2023/06/03 06:04:26;;;;;;;6.90;5.10;;;;;;;-143.84;52.41;44991.94;5110105;28;20447;-57
2023/06/03 06:06:53;;;;;;;11.40;5.53;;;;;;;-143.84;53.69;44984.31;5110321;28;20446;-57
2023/06/03 06:09:20;;;;;;;6.20;4.87;;;;;;;-143.84;54.66;44978.63;5110110;28;20491;-57
2023/06/03 06:11:47;;;;;;;11.77;4.93;;;;;;;-143.84;54.68;44988.13;5109946;28;20561;-57
2023/06/03 06:14:16;;;;;;;8.63;4.97;;;;;;;-143.84;53.41;44993.84;5110186;28;20489;-57
2023/06/03 06:16:43;;;;;;;7.63;5.93;;;;;;;-143.84;57.27;45010.97;5110457;28;20828;-57
2023/06/03 06:19:10;;;;;;;17.77;6.00;;;;;;;-143.84;60.15;45016.69;5110010;28;20435;-57
2023/06/03 06:21:37;;;;;;;15.20;4.73;;;;;;;-143.84;61.63;44991.94;5109714;28;20504;-57
2023/06/03 06:24:06;;;;;;;8.30;5.10;;;;;;;-143.84;62.61;45010.97;5095164;28;20444;-57
2023/06/03 06:26:33;;;;;;;9.43;5.80;;;;;;;-143.84;60.91;44999.56;5089763;28;20439;-57
2023/06/03 06:29:02;;;;;;;8.60;4.70;;;;;;;-143.84;60.66;45020.50;5107368;28;20861;-59
2023/06/03 06:31:30;;;;;;;8.30;5.10;;;;;;;-143.84;60.50;45024.31;5110649;28;20445;-59
2023/06/03 06:34:00;;;;;;;6.77;5.20;;;;;;;-143.84;59.87;45005.28;5110487;28;20443;-53
2023/06/03 06:36:39;;;;;;;9.13;4.30;;;;;;;-143.84;63.03;44993.84;5109352;28;20506;-53
2023/06/03 06:39:21;;;;;;;7.50;4.70;;;;;;;-143.84;57.28;44995.75;5109622;28;20441;-54
2023/06/03 06:41:48;;;;;;;7.73;4.63;;;;;;;-143.84;56.82;45009.09;5109336;28;20439;-54
2023/06/03 06:44:15;;;;;;;14.13;4.90;;;;;;;-143.84;55.16;45016.69;5109644;28;20439;-54
2023/06/03 06:46:44;;;;;;;5.87;4.70;;;;;;;-143.84;55.17;44984.31;5109949;28;20441;-54
2023/06/03 06:49:11;;;;;;;5.80;5.17;;;;;;;-143.84;56.25;44974.81;5109789;28;20860;-56
2023/06/03 06:51:38;;;;;;;6.43;4.90;;;;;;;-143.84;56.51;44980.53;5109004;28;20764;-57
2023/06/03 06:54:05;;;;;;;11.80;5.03;;;;;;;-143.84;54.08;44961.47;5109512;28;20963;-57
2023/06/03 06:56:35;;;;;;;5.03;4.27;;;;;;;-143.84;51.13;44967.19;5109610;28;20489;-57
2023/06/03 06:59:02;;;;;;;4.63;4.23;;;;;;;-143.84;51.43;44969.09;5109610;28;20470;-57
2023/06/03 07:01:30;;;;;;;8.47;3.80;;;;;;;-143.84;53.92;44957.66;5109679;28;21093;-57
2023/06/03 07:03:58;;;;;;;5.07;4.23;;;;;;;-143.84;51.27;44965.28;5108963;28;20436;-56
2023/06/03 07:06:25;;;;;;;9.43;4.10;;;;;;;-143.84;47.70;44967.19;5108766;28;20493;-57
2023/06/03 07:08:53;;;;;;;6.77;4.17;;;;;;;-143.84;45.88;44971.00;5109040;28;20444;-57
2023/06/03 07:11:21;;;;;;;13.63;3.73;;;;;;;-143.84;42.73;44948.16;5108273;28;20447;-57
2023/06/03 07:13:48;;;;;;;9.90;4.90;;;;;;;-143.84;41.73;44942.44;5108037;28;20498;-57
2023/06/03 07:16:16;;;;;;;7.73;4.57;;;;;;;-143.84;41.87;44925.31;5108830;28;20532;-57
2023/06/03 07:18:43;;;;;;;7.70;4.53;;;;;;;-143.84;42.02;44917.69;5108862;28;20515;-57
2023/06/03 07:21:12;;;;;;;23.63;4.40;;;;;;;-143.84;40.95;44925.31;5109054;28;20442;-57
2023/06/03 07:23:39;;;;;;;12.40;4.23;;;;;;;-143.84;40.66;44944.34;5109486;28;20501;-57
2023/06/03 07:26:07;;;;;;;12.83;4.47;;;;;;;-143.84;41.57;44955.75;5109215;28;20566;-57
2023/06/03 07:28:37;;;;;;;12.63;4.37;;;;;;;-143.84;41.95;44932.91;5109360;28;20520;-57
2023/06/03 07:31:07;;;;;;;12.00;4.00;;;;;;;-143.84;41.60;44936.72;5109228;28;20442;-57
2023/06/03 07:33:37;;;;;;;6.20;4.20;;;;;;;-143.84;43.06;44940.53;5109025;28;20958;-57
2023/06/03 07:36:05;;;;;;;13.00;4.27;;;;;;;-143.84;43.44;44951.97;5108830;28;21156;-57
2023/06/03 07:38:57;;;;;;;4.90;3.30;;;;;;;-143.84;43.39;44919.59;5108691;28;20447;-57
2023/06/03 07:41:50;;;;;;;3.40;3.10;;;;;;;-143.84;43.42;44957.66;5109030;28;21272;-57
2023/06/03 07:44:25;;;;;;;10.27;3.97;;;;;;;-143.84;44.65;44946.25;5104320;28;20971;-57
2023/06/03 07:46:57;;;;;;;6.97;3.50;;;;;;;-143.84;44.41;44953.88;5108761;28;20453;-57
2023/06/03 07:49:24;;;;;;;6.57;3.70;;;;;;;-143.84;45.44;44953.88;5108312;28;20443;-57
2023/06/03 07:51:53;;;;;;;4.70;4.10;;;;;;;-143.84;45.64;44936.72;5107104;28;20968;-57
2023/06/03 07:54:22;;;;;;;4.40;3.80;;;;;;;-143.84;46.13;44967.19;5107217;28;20492;-57
2023/06/03 07:56:49;;;;;;;10.40;4.30;;;;;;;-143.84;45.98;44953.88;5107324;28;20580;-57
2023/06/03 07:59:18;;;;;;;7.07;5.13;;;;;;;-143.84;47.73;44946.25;5107094;28;20440;-57
2023/06/03 08:01:47;;;;;;;4.53;4.13;;;;;;;-143.84;46.74;44959.56;5107174;28;20444;-57
2023/06/03 08:04:30;;;;;;;8.80;3.73;;;;;;;-143.84;48.85;44976.72;5108870;28;20887;-56
2023/06/03 08:06:59;;;;;;;7.83;4.10;;;;;;;-143.84;50.33;44955.75;5111247;28;20443;-57
2023/06/03 08:09:30;;;;;;;5.63;4.57;;;;;;;-143.84;53.95;44955.75;5111544;28;20444;-57
2023/06/03 08:11:57;;;;;;;4.33;3.97;;;;;;;-143.84;49.68;44932.91;5111283;28;20451;-57
2023/06/03 08:14:25;;;;;;;4.33;3.80;;;;;;;-143.84;47.64;44944.34;5111182;28;20858;-57
2023/06/03 08:16:53;;;;;;;7.47;4.17;;;;;;;-143.84;46.14;44946.25;5111937;28;20472;-57
2023/06/03 08:19:20;;;;;;;8.00;3.70;;;;;;;-143.84;44.82;44967.19;5113008;28;20462;-57
2023/06/03 08:21:48;;;;;;;10.73;4.40;;;;;;;-143.84;48.51;44917.69;5112309;28;20494;-57
2023/06/03 08:24:15;;;;;;;6.20;3.63;;;;;;;-143.84;47.32;44957.66;5112497;28;20432;-57
2023/06/03 08:26:44;;;;;;;9.07;3.90;;;;;;;-143.84;46.91;44951.97;5112341;28;20799;-56
2023/06/03 08:29:12;;;;;;;5.10;4.60;;;;;;;-143.84;47.23;44969.09;5110209;28;20506;-57
2023/06/03 08:31:39;;;;;;;7.40;4.77;;;;;;;-143.84;47.55;44972.91;5112159;28;20443;-57
2023/06/03 08:34:06;;;;;;;7.23;4.27;;;;;;;-143.84;48.26;44948.16;5112529;28;20433;-57
2023/06/03 08:36:34;;;;;;;5.23;4.73;;;;;;;-143.84;47.94;44978.63;5112169;28;20482;-57
2023/06/03 08:39:01;;;;;;;6.90;3.53;;;;;;;-143.84;49.33;44997.66;5112340;28;20929;-57
2023/06/03 08:41:35;;;;;;;4.60;4.20;;;;;;;-143.84;49.99;44957.66;5112191;28;20439;-57
2023/06/03 08:44:10;;;;;;;6.03;4.03;;;;;;;-143.84;49.91;44967.19;5112100;28;20437;-57
2023/06/03 08:46:45;;;;;;;6.30;4.63;;;;;;;-143.84;51.09;44972.91;5111943;28;20443;-57
2023/06/03 08:49:20;;;;;;;6.13;4.20;;;;;;;-143.84;50.11;44965.28;5109703;28;20504;-57
2023/06/03 08:51:55;;;;;;;8.23;4.30;;;;;;;-143.84;48.16;44965.28;5111902;28;20499;-57
2023/06/03 08:54:29;;;;;;;4.53;4.10;;;;;;;-143.84;46.96;44969.09;5111926;28;20443;-57
2023/06/03 08:57:03;;;;;;;4.90;3.90;;;;;;;-143.84;47.84;44976.72;5109517;28;20490;-57
2023/06/03 08:59:35;;;;;;;9.30;3.80;;;;;;;-143.84;45.83;44990.03;5110393;28;20537;-57
2023/06/03 09:02:06;;;;;;;7.80;4.07;;;;;;;-143.84;44.59;44961.47;5108957;28;20501;-57
2023/06/03 09:04:34;;;;;;;6.57;3.90;;;;;;;-143.84;41.41;44950.06;5108073;28;20919;-57
2023/06/03 09:07:03;;;;;;;7.80;3.90;;;;;;;-143.84;41.49;44971.00;5109315;28;21109;-57
2023/06/03 09:09:32;;;;;;;6.30;4.33;;;;;;;-143.84;41.43;44932.91;5110507;28;20462;-57
2023/06/03 09:12:01;;;;;;;5.17;4.77;;;;;;;-143.84;45.49;44919.59;5110592;28;20445;-57
2023/06/03 09:14:29;;;;;;;7.10;3.57;;;;;;;-143.84;44.09;44913.88;5109876;28;20476;-57
2023/06/03 09:17:00;;;;;;;10.77;4.03;;;;;;;-143.84;44.89;44971.00;5111259;28;20663;-57
2023/06/03 09:19:28;;;;;;;5.53;3.70;;;;;;;-143.84;45.26;44950.06;5110922;28;20501;-57
2023/06/03 09:21:56;;;;;;;7.03;4.10;;;;;;;-143.84;44.30;44927.19;5111130;28;20441;-57
2023/06/03 09:24:23;;;;;;;7.00;3.63;;;;;;;-143.84;44.19;44950.06;5111030;28;20443;-57
2023/06/03 09:26:50;;;;;;;3.80;3.53;;;;;;;-143.84;43.13;44953.88;5111072;28;20494;-57
2023/06/03 09:29:18;;;;;;;5.30;3.37;;;;;;;-143.84;44.07;44957.66;5111209;28;21055;-57
2023/06/03 09:31:45;;;;;;;15.57;4.50;;;;;;;-143.84;44.09;44929.09;5110939;28;20487;-57
2023/06/03 09:34:15;;;;;;;10.00;3.83;;;;;;;-143.84;45.10;44921.50;5110886;28;21006;-57
2023/06/03 09:36:46;;;;;;;7.20;3.60;;;;;;;-143.84;46.16;44953.88;5111095;28;20467;-57
2023/06/03 09:39:16;;;;;;;9.70;4.70;;;;;;;-143.84;47.88;44950.06;5109952;28;20440;-57
2023/06/03 09:41:44;;;;;;;5.07;3.97;;;;;;;-143.84;48.38;44982.41;5110474;28;20956;-57
2023/06/03 09:44:11;;;;;;;5.73;4.30;;;;;;;-143.84;48.65;44980.53;5110689;28;20428;-57
2023/06/03 09:46:39;;;;;;;5.00;3.80;;;;;;;-143.84;48.68;44991.94;5110649;28;20530;-57
2023/06/03 09:49:10;;;;;;;7.23;3.80;;;;;;;-143.84;47.57;44963.38;5110671;28;20497;-57
2023/06/03 09:51:43;;;;;;;4.63;4.20;;;;;;;-143.84;45.81;44984.31;5110412;28;20535;-57
2023/06/03 09:54:12;;;;;;;5.27;4.33;;;;;;;-143.84;46.19;44972.91;5110526;28;20451;-57
2023/06/03 09:56:39;;;;;;;6.03;4.10;;;;;;;-143.84;46.26;44980.53;5110605;28;20478;-57
2023/06/03 09:59:26;;;;;;;4.43;4.03;;;;;;;-143.84;47.68;44976.72;5110662;28;20826;-57
2023/06/03 10:01:54;;;;;;;4.33;4.03;;;;;;;-143.84;48.92;44965.28;5089852;28;20539;-57
2023/06/03 10:04:23;;;;;;;6.37;4.00;;;;;;;-143.84;49.45;44978.63;5090354;28;20435;-57
2023/06/03 10:07:08;;;;;;;9.67;6.80;;;;;;;-143.84;47.63;44963.38;5090161;28;20871;-57
2023/06/03 10:09:36;;;;;;;4.40;4.00;;;;;;;-143.84;50.36;44967.19;5089961;28;20451;-57
2023/06/03 10:12:03;;;;;;;10.10;4.20;;;;;;;-143.84;50.47;44969.09;5090004;28;20996;-57
2023/06/03 10:14:30;;;;;;;4.43;3.93;;;;;;;-143.84;54.02;44999.56;5089678;28;20582;-57
2023/06/03 10:17:07;;;;;;;8.97;3.70;;;;;;;-143.84;55.17;44986.22;5100651;28;20486;-57
2023/06/03 10:19:35;;;;;;;5.27;4.77;;;;;;;-143.84;53.63;44990.03;5110117;28;20441;-57
2023/06/03 10:22:06;;;;;;;4.10;3.70;;;;;;;-143.84;52.89;44957.66;5110054;28;20440;-57
2023/06/03 10:24:35;;;;;;;4.97;4.50;;;;;;;-143.84;53.50;44978.63;5110188;28;20495;-56
2023/06/03 10:27:03;;;;;;;6.93;4.10;;;;;;;-143.84;52.14;44972.91;5109270;28;20519;-57
2023/06/03 10:29:31;;;;;;;9.80;4.47;;;;;;;-143.84;51.06;44971.00;5110013;28;20435;-57
2023/06/03 10:32:00;;;;;;;6.30;4.10;;;;;;;-143.84;50.99;44950.06;5109888;28;20829;-57
2023/06/03 10:34:29;;;;;;;6.90;4.60;;;;;;;-143.84;50.79;44986.22;5109855;28;20519;-56
2023/06/03 10:37:01;;;;;;;6.33;3.80;;;;;;;-143.84;51.59;44978.63;5110268;28;20848;-57
2023/06/03 10:39:30;;;;;;;4.53;4.13;;;;;;;-143.84;53.70;44986.22;5109599;28;20431;-56
2023/06/03 10:42:00;;;;;;;13.63;6.07;;;;;;;-143.84;55.26;44967.19;5109697;28;20454;-57
2023/06/03 10:44:27;;;;;;;8.80;3.80;;;;;;;-143.84;52.04;44969.09;5109717;28;20432;-57
2023/06/03 10:47:00;;;;;;;8.70;4.00;;;;;;;-143.84;52.39;44965.28;5109705;28;20446;-57
2023/06/03 10:49:32;;;;;;;5.17;3.87;;;;;;;-143.84;54.40;44961.47;5109428;28;20455;-57
2023/06/03 10:52:33;;;;;;;4.50;3.60;;;;;;;-143.84;55.61;44961.47;5110037;28;20531;-57
2023/06/03 10:55:14;;;;;;;4.63;4.23;;;;;;;-143.84;58.78;44971.00;5109779;28;20882;-57
2023/06/03 10:57:46;;;;;;;4.17;3.70;;;;;;;-143.84;59.15;44995.75;5109344;28;20915;-57
2023/06/03 11:00:14;;;;;;;8.97;4.60;;;;;;;-143.84;59.96;44972.91;5109420;28;20439;-57
2023/06/03 11:03:05;;;;;;;5.10;4.30;;;;;;;-143.84;58.06;44974.81;5109565;28;20455;-57
2023/06/03 11:05:32;;;;;;;4.47;4.10;;;;;;;-143.84;59.24;44991.94;5099866;28;20535;-57
2023/06/03 11:08:00;;;;;;;4.40;4.10;;;;;;;-143.84;57.07;44988.13;5109329;28;20431;-57
2023/06/03 11:10:49;;;;;;;11.07;4.83;;;;;;;-143.84;59.38;44950.06;5109543;28;20493;-57
2023/06/03 11:13:41;;;;;;;6.57;4.37;;;;;;;-143.84;59.38;44980.53;5103122;28;20434;-57
2023/06/03 11:16:08;;;;;;;11.10;3.50;;;;;;;-143.84;59.84;44993.84;5109213;28;20862;-57
2023/06/03 11:18:36;;;;;;;4.30;3.90;;;;;;;-143.84;60.24;44969.09;5109384;28;20438;-57
2023/06/03 11:21:03;;;;;;;9.50;4.03;;;;;;;-143.84;57.33;44971.00;5109209;28;20447;-57
2023/06/03 11:23:43;;;;;;;6.50;3.70;;;;;;;-143.84;56.79;45014.78;5109015;28;20435;-57
2023/06/03 11:26:35;;;;;;;4.80;4.03;;;;;;;-143.84;57.85;44951.97;5109337;28;20945;-57